Terminal Aerodrome Forecast
Issued by NWS Binghamton, NY

Home | Current Version | Previous Version | Text Only | Print | Product List | Glossary On
Versions: 1 2 3 4 5 6 7 8 9 10 11 12 13 14 15 16 17 18 19 20 21
709
FTUS41 KBGM 260155 AAB
TAFSYR
TAF AMD
KSYR 260155Z 2602/2624 26015KT P6SM -SHSN BKN035
      TEMPO 2602/2606 BKN025
     FM261200 27015G25KT 4SM -SHSN OVC025
     FM261900 26015G25KT P6SM OVC030=

USA.gov is the U.S. government's official web portal to all federal, state and local government web resources and services.